sensor_id;sensor_type;location;lat;lon;timestamp;P1;durP1;ratioP1;P2;durP2;ratioP2
37237;SDS011;23129;49.662;8.448;2023-01-24T00:01:22;11.57;;;7.13;;
37237;SDS011;23129;49.662;8.448;2023-01-24T00:03:51;10.77;;;6.20;;
37237;SDS011;23129;49.662;8.448;2023-01-24T00:06:20;11.55;;;6.80;;
37237;SDS011;23129;49.662;8.448;2023-01-24T00:08:49;16.00;;;7.32;;
37237;SDS011;23129;49.662;8.448;2023-01-24T00:11:17;14.95;;;8.60;;
37237;SDS011;23129;49.662;8.448;2023-01-24T00:13:46;14.60;;;7.22;;
37237;SDS011;23129;49.662;8.448;2023-01-24T00:16:17;16.38;;;8.55;;
37237;SDS011;23129;49.662;8.448;2023-01-24T00:18:47;11.65;;;7.28;;
37237;SDS011;23129;49.662;8.448;2023-01-24T00:21:17;15.68;;;7.40;;
37237;SDS011;23129;49.662;8.448;2023-01-24T00:23:48;16.23;;;7.97;;
37237;SDS011;23129;49.662;8.448;2023-01-24T00:26:19;18.73;;;8.73;;
37237;SDS011;23129;49.662;8.448;2023-01-24T00:28:49;13.98;;;6.82;;
37237;SDS011;23129;49.662;8.448;2023-01-24T00:31:19;14.75;;;7.38;;
37237;SDS011;23129;49.662;8.448;2023-01-24T00:33:48;13.88;;;7.50;;
37237;SDS011;23129;49.662;8.448;2023-01-24T00:36:16;16.08;;;7.80;;
37237;SDS011;23129;49.662;8.448;2023-01-24T00:38:45;17.00;;;8.35;;
37237;SDS011;23129;49.662;8.448;2023-01-24T00:41:13;16.73;;;8.25;;
37237;SDS011;23129;49.662;8.448;2023-01-24T00:43:42;13.18;;;6.80;;
37237;SDS011;23129;49.662;8.448;2023-01-24T00:46:10;13.43;;;6.75;;
37237;SDS011;23129;49.662;8.448;2023-01-24T00:48:40;17.38;;;8.80;;
37237;SDS011;23129;49.662;8.448;2023-01-24T00:51:09;11.48;;;7.55;;
37237;SDS011;23129;49.662;8.448;2023-01-24T00:53:38;13.70;;;7.40;;
37237;SDS011;23129;49.662;8.448;2023-01-24T00:56:07;12.55;;;7.25;;
37237;SDS011;23129;49.662;8.448;2023-01-24T00:58:36;11.55;;;6.93;;
37237;SDS011;23129;49.662;8.448;2023-01-24T01:01:06;12.70;;;6.32;;
37237;SDS011;23129;49.662;8.448;2023-01-24T01:03:35;14.18;;;7.47;;
37237;SDS011;23129;49.662;8.448;2023-01-24T01:06:06;14.05;;;7.03;;
37237;SDS011;23129;49.662;8.448;2023-01-24T01:08:37;16.80;;;8.00;;
37237;SDS011;23129;49.662;8.448;2023-01-24T01:11:06;14.07;;;7.32;;
37237;SDS011;23129;49.662;8.448;2023-01-24T01:13:34;11.48;;;7.25;;
37237;SDS011;23129;49.662;8.448;2023-01-24T01:16:04;15.85;;;6.88;;
37237;SDS011;23129;49.662;8.448;2023-01-24T01:18:34;13.85;;;7.72;;
37237;SDS011;23129;49.662;8.448;2023-01-24T01:21:06;16.10;;;7.40;;
37237;SDS011;23129;49.662;8.448;2023-01-24T01:23:39;12.93;;;7.78;;
37237;SDS011;23129;49.662;8.448;2023-01-24T01:26:08;15.05;;;8.25;;
37237;SDS011;23129;49.662;8.448;2023-01-24T01:28:42;11.35;;;5.97;;
37237;SDS011;23129;49.662;8.448;2023-01-24T01:31:12;19.25;;;7.28;;
37237;SDS011;23129;49.662;8.448;2023-01-24T01:33:42;13.32;;;7.05;;
37237;SDS011;23129;49.662;8.448;2023-01-24T01:36:13;12.82;;;6.35;;
37237;SDS011;23129;49.662;8.448;2023-01-24T01:38:41;16.52;;;7.80;;
37237;SDS011;23129;49.662;8.448;2023-01-24T01:41:10;13.25;;;7.05;;
37237;SDS011;23129;49.662;8.448;2023-01-24T01:43:39;15.73;;;6.88;;
37237;SDS011;23129;49.662;8.448;2023-01-24T01:46:28;15.23;;;7.68;;
37237;SDS011;23129;49.662;8.448;2023-01-24T01:49:04;19.95;;;8.80;;
37237;SDS011;23129;49.662;8.448;2023-01-24T01:51:35;13.85;;;8.13;;
37237;SDS011;23129;49.662;8.448;2023-01-24T01:54:12;17.45;;;8.57;;
37237;SDS011;23129;49.662;8.448;2023-01-24T01:56:47;20.48;;;8.70;;
37237;SDS011;23129;49.662;8.448;2023-01-24T02:01:53;18.55;;;9.73;;
37237;SDS011;23129;49.662;8.448;2023-01-24T02:04:25;20.65;;;8.93;;
37237;SDS011;23129;49.662;8.448;2023-01-24T02:07:01;15.00;;;8.18;;
37237;SDS011;23129;49.662;8.448;2023-01-24T02:09:34;17.10;;;7.80;;
37237;SDS011;23129;49.662;8.448;2023-01-24T02:12:07;16.73;;;7.70;;
37237;SDS011;23129;49.662;8.448;2023-01-24T02:14:40;19.02;;;7.60;;
37237;SDS011;23129;49.662;8.448;2023-01-24T02:17:26;11.80;;;7.07;;
37237;SDS011;23129;49.662;8.448;2023-01-24T02:20:02;15.77;;;6.78;;
37237;SDS011;23129;49.662;8.448;2023-01-24T02:22:50;17.50;;;7.85;;
37237;SDS011;23129;49.662;8.448;2023-01-24T02:25:31;10.43;;;6.82;;
37237;SDS011;23129;49.662;8.448;2023-01-24T02:28:09;13.15;;;7.88;;
37237;SDS011;23129;49.662;8.448;2023-01-24T02:30:38;14.35;;;7.82;;
37237;SDS011;23129;49.662;8.448;2023-01-24T02:33:10;18.23;;;7.20;;
37237;SDS011;23129;49.662;8.448;2023-01-24T02:35:41;13.40;;;7.43;;
37237;SDS011;23129;49.662;8.448;2023-01-24T02:38:15;14.27;;;7.60;;
37237;SDS011;23129;49.662;8.448;2023-01-24T02:40:48;14.25;;;7.78;;
37237;SDS011;23129;49.662;8.448;2023-01-24T02:43:23;15.80;;;7.55;;
37237;SDS011;23129;49.662;8.448;2023-01-24T02:48:23;12.38;;;6.78;;
37237;SDS011;23129;49.662;8.448;2023-01-24T02:50:52;11.75;;;6.38;;
37237;SDS011;23129;49.662;8.448;2023-01-24T02:53:38;13.07;;;7.22;;
37237;SDS011;23129;49.662;8.448;2023-01-24T02:56:08;15.00;;;6.82;;
37237;SDS011;23129;49.662;8.448;2023-01-24T02:58:59;13.70;;;6.78;;
37237;SDS011;23129;49.662;8.448;2023-01-24T03:01:30;13.73;;;7.38;;
37237;SDS011;23129;49.662;8.448;2023-01-24T03:03:58;11.25;;;6.93;;
37237;SDS011;23129;49.662;8.448;2023-01-24T03:06:28;14.70;;;7.68;;
37237;SDS011;23129;49.662;8.448;2023-01-24T03:08:56;12.57;;;7.03;;
37237;SDS011;23129;49.662;8.448;2023-01-24T03:11:31;13.10;;;6.80;;
37237;SDS011;23129;49.662;8.448;2023-01-24T03:14:01;16.52;;;8.30;;
37237;SDS011;23129;49.662;8.448;2023-01-24T03:16:47;13.13;;;6.75;;
37237;SDS011;23129;49.662;8.448;2023-01-24T03:19:33;11.70;;;6.63;;
37237;SDS011;23129;49.662;8.448;2023-01-24T03:22:20;19.75;;;8.05;;
37237;SDS011;23129;49.662;8.448;2023-01-24T03:25:07;10.65;;;6.47;;
37237;SDS011;23129;49.662;8.448;2023-01-24T03:27:53;16.80;;;7.72;;
37237;SDS011;23129;49.662;8.448;2023-01-24T03:30:40;14.40;;;7.93;;
37237;SDS011;23129;49.662;8.448;2023-01-24T03:33:27;12.90;;;7.07;;
37237;SDS011;23129;49.662;8.448;2023-01-24T03:36:15;14.50;;;7.50;;
37237;SDS011;23129;49.662;8.448;2023-01-24T03:38:49;12.30;;;6.95;;
37237;SDS011;23129;49.662;8.448;2023-01-24T03:41:36;14.15;;;7.00;;
37237;SDS011;23129;49.662;8.448;2023-01-24T03:44:05;15.30;;;8.23;;
37237;SDS011;23129;49.662;8.448;2023-01-24T03:46:34;16.20;;;8.52;;
37237;SDS011;23129;49.662;8.448;2023-01-24T03:49:06;13.68;;;7.57;;
37237;SDS011;23129;49.662;8.448;2023-01-24T03:51:37;14.43;;;7.40;;
37237;SDS011;23129;49.662;8.448;2023-01-24T03:54:23;13.65;;;6.80;;
37237;SDS011;23129;49.662;8.448;2023-01-24T03:56:56;13.48;;;6.97;;
37237;SDS011;23129;49.662;8.448;2023-01-24T03:59:25;17.60;;;7.95;;
37237;SDS011;23129;49.662;8.448;2023-01-24T04:01:55;11.27;;;6.88;;
37237;SDS011;23129;49.662;8.448;2023-01-24T04:04:27;11.75;;;7.22;;
37237;SDS011;23129;49.662;8.448;2023-01-24T04:07:17;10.93;;;6.47;;
37237;SDS011;23129;49.662;8.448;2023-01-24T04:10:04;10.00;;;6.03;;
37237;SDS011;23129;49.662;8.448;2023-01-24T04:12:39;13.73;;;7.18;;
37237;SDS011;23129;49.662;8.448;2023-01-24T04:15:08;12.63;;;6.18;;
37237;SDS011;23129;49.662;8.448;2023-01-24T04:17:44;13.73;;;7.05;;
37237;SDS011;23129;49.662;8.448;2023-01-24T04:20:12;11.77;;;7.03;;
37237;SDS011;23129;49.662;8.448;2023-01-24T04:22:43;15.02;;;6.78;;
37237;SDS011;23129;49.662;8.448;2023-01-24T04:25:12;13.05;;;7.35;;
37237;SDS011;23129;49.662;8.448;2023-01-24T04:27:44;15.40;;;7.35;;
37237;SDS011;23129;49.662;8.448;2023-01-24T04:30:19;10.63;;;6.57;;
37237;SDS011;23129;49.662;8.448;2023-01-24T04:32:53;14.02;;;7.55;;
37237;SDS011;23129;49.662;8.448;2023-01-24T04:35:24;12.75;;;7.68;;
37237;SDS011;23129;49.662;8.448;2023-01-24T04:37:59;10.82;;;6.38;;
37237;SDS011;23129;49.662;8.448;2023-01-24T04:40:58;10.55;;;6.72;;
37237;SDS011;23129;49.662;8.448;2023-01-24T04:43:34;10.35;;;5.68;;
37237;SDS011;23129;49.662;8.448;2023-01-24T04:46:03;8.93;;;5.57;;
37237;SDS011;23129;49.662;8.448;2023-01-24T04:48:51;11.10;;;6.15;;
37237;SDS011;23129;49.662;8.448;2023-01-24T04:51:20;12.05;;;5.50;;
37237;SDS011;23129;49.662;8.448;2023-01-24T04:53:49;8.45;;;5.47;;
37237;SDS011;23129;49.662;8.448;2023-01-24T04:56:21;8.30;;;4.70;;
37237;SDS011;23129;49.662;8.448;2023-01-24T04:58:50;8.93;;;4.88;;
37237;SDS011;23129;49.662;8.448;2023-01-24T05:01:18;14.48;;;5.88;;
37237;SDS011;23129;49.662;8.448;2023-01-24T05:04:00;9.25;;;5.90;;
37237;SDS011;23129;49.662;8.448;2023-01-24T05:06:29;8.98;;;6.05;;
37237;SDS011;23129;49.662;8.448;2023-01-24T05:08:59;13.75;;;6.70;;
37237;SDS011;23129;49.662;8.448;2023-01-24T05:11:43;8.50;;;4.85;;
37237;SDS011;23129;49.662;8.448;2023-01-24T05:14:12;12.98;;;6.68;;
37237;SDS011;23129;49.662;8.448;2023-01-24T05:16:40;9.63;;;5.53;;
37237;SDS011;23129;49.662;8.448;2023-01-24T05:19:11;12.48;;;5.90;;
37237;SDS011;23129;49.662;8.448;2023-01-24T05:21:41;10.68;;;5.47;;
37237;SDS011;23129;49.662;8.448;2023-01-24T05:24:10;10.18;;;6.10;;
37237;SDS011;23129;49.662;8.448;2023-01-24T05:26:39;11.18;;;5.53;;
37237;SDS011;23129;49.662;8.448;2023-01-24T05:29:09;13.40;;;6.07;;
37237;SDS011;23129;49.662;8.448;2023-01-24T05:31:38;13.40;;;6.03;;
37237;SDS011;23129;49.662;8.448;2023-01-24T05:34:07;10.90;;;5.35;;
37237;SDS011;23129;49.662;8.448;2023-01-24T05:36:38;10.30;;;5.38;;
37237;SDS011;23129;49.662;8.448;2023-01-24T05:39:06;10.95;;;6.38;;
37237;SDS011;23129;49.662;8.448;2023-01-24T05:41:35;11.63;;;6.30;;
37237;SDS011;23129;49.662;8.448;2023-01-24T05:44:04;11.10;;;6.45;;
37237;SDS011;23129;49.662;8.448;2023-01-24T05:46:37;8.80;;;5.80;;
37237;SDS011;23129;49.662;8.448;2023-01-24T05:49:28;16.10;;;9.43;;
37237;SDS011;23129;49.662;8.448;2023-01-24T05:51:59;25.90;;;14.63;;
37237;SDS011;23129;49.662;8.448;2023-01-24T05:54:40;63.25;;;26.75;;
37237;SDS011;23129;49.662;8.448;2023-01-24T05:57:27;43.25;;;20.63;;
37237;SDS011;23129;49.662;8.448;2023-01-24T06:00:15;23.10;;;10.65;;
37237;SDS011;23129;49.662;8.448;2023-01-24T06:03:04;10.95;;;6.38;;
37237;SDS011;23129;49.662;8.448;2023-01-24T06:05:33;15.02;;;7.38;;
37237;SDS011;23129;49.662;8.448;2023-01-24T06:08:04;10.82;;;6.45;;
37237;SDS011;23129;49.662;8.448;2023-01-24T06:10:32;9.10;;;6.78;;
37237;SDS011;23129;49.662;8.448;2023-01-24T06:13:04;10.60;;;6.40;;
37237;SDS011;23129;49.662;8.448;2023-01-24T06:15:32;16.00;;;7.95;;
37237;SDS011;23129;49.662;8.448;2023-01-24T06:18:02;12.25;;;6.65;;
37237;SDS011;23129;49.662;8.448;2023-01-24T06:20:31;12.77;;;6.57;;
37237;SDS011;23129;49.662;8.448;2023-01-24T06:23:02;17.73;;;6.57;;
37237;SDS011;23129;49.662;8.448;2023-01-24T06:25:40;14.10;;;7.32;;
37237;SDS011;23129;49.662;8.448;2023-01-24T06:28:09;11.85;;;7.65;;
37237;SDS011;23129;49.662;8.448;2023-01-24T06:30:38;19.10;;;8.30;;
37237;SDS011;23129;49.662;8.448;2023-01-24T06:33:21;14.20;;;7.47;;
37237;SDS011;23129;49.662;8.448;2023-01-24T06:36:10;15.25;;;7.43;;
37237;SDS011;23129;49.662;8.448;2023-01-24T06:38:58;12.00;;;7.45;;
37237;SDS011;23129;49.662;8.448;2023-01-24T06:41:27;12.35;;;6.43;;
37237;SDS011;23129;49.662;8.448;2023-01-24T06:43:55;14.93;;;7.40;;
37237;SDS011;23129;49.662;8.448;2023-01-24T06:46:24;12.52;;;7.80;;
37237;SDS011;23129;49.662;8.448;2023-01-24T06:48:53;14.80;;;6.90;;
37237;SDS011;23129;49.662;8.448;2023-01-24T06:51:21;13.38;;;7.47;;
37237;SDS011;23129;49.662;8.448;2023-01-24T06:53:49;13.65;;;7.20;;
37237;SDS011;23129;49.662;8.448;2023-01-24T06:56:19;14.23;;;7.88;;
37237;SDS011;23129;49.662;8.448;2023-01-24T06:58:47;20.58;;;8.18;;
37237;SDS011;23129;49.662;8.448;2023-01-24T07:01:16;16.80;;;8.85;;
37237;SDS011;23129;49.662;8.448;2023-01-24T07:03:44;16.33;;;7.45;;
37237;SDS011;23129;49.662;8.448;2023-01-24T07:06:13;13.27;;;7.10;;
37237;SDS011;23129;49.662;8.448;2023-01-24T07:08:41;17.92;;;7.43;;
37237;SDS011;23129;49.662;8.448;2023-01-24T07:11:10;12.95;;;7.13;;
37237;SDS011;23129;49.662;8.448;2023-01-24T07:13:40;16.25;;;8.45;;
37237;SDS011;23129;49.662;8.448;2023-01-24T07:16:08;14.95;;;7.25;;
37237;SDS011;23129;49.662;8.448;2023-01-24T07:18:37;13.32;;;7.00;;
37237;SDS011;23129;49.662;8.448;2023-01-24T07:21:06;15.13;;;6.93;;
37237;SDS011;23129;49.662;8.448;2023-01-24T07:23:36;15.63;;;8.48;;
37237;SDS011;23129;49.662;8.448;2023-01-24T07:26:10;11.63;;;7.03;;
37237;SDS011;23129;49.662;8.448;2023-01-24T07:28:41;12.80;;;7.40;;
37237;SDS011;23129;49.662;8.448;2023-01-24T07:31:10;19.38;;;9.45;;
37237;SDS011;23129;49.662;8.448;2023-01-24T07:33:42;13.85;;;7.43;;
37237;SDS011;23129;49.662;8.448;2023-01-24T07:36:10;10.38;;;6.55;;
37237;SDS011;23129;49.662;8.448;2023-01-24T07:38:41;13.65;;;6.78;;
37237;SDS011;23129;49.662;8.448;2023-01-24T07:41:09;14.40;;;8.10;;
37237;SDS011;23129;49.662;8.448;2023-01-24T07:43:38;14.02;;;7.63;;
37237;SDS011;23129;49.662;8.448;2023-01-24T07:46:08;15.27;;;7.00;;
37237;SDS011;23129;49.662;8.448;2023-01-24T07:48:37;13.43;;;7.88;;
37237;SDS011;23129;49.662;8.448;2023-01-24T07:51:05;10.15;;;6.28;;
37237;SDS011;23129;49.662;8.448;2023-01-24T07:53:35;17.08;;;8.13;;
37237;SDS011;23129;49.662;8.448;2023-01-24T07:56:04;12.05;;;7.40;;
37237;SDS011;23129;49.662;8.448;2023-01-24T07:58:41;10.20;;;6.40;;
37237;SDS011;23129;49.662;8.448;2023-01-24T08:01:14;10.80;;;6.93;;
37237;SDS011;23129;49.662;8.448;2023-01-24T08:03:44;13.57;;;7.00;;
37237;SDS011;23129;49.662;8.448;2023-01-24T08:06:12;12.23;;;6.68;;
37237;SDS011;23129;49.662;8.448;2023-01-24T08:08:41;15.35;;;6.97;;
37237;SDS011;23129;49.662;8.448;2023-01-24T08:11:09;15.98;;;6.75;;
37237;SDS011;23129;49.662;8.448;2023-01-24T08:13:43;13.38;;;7.53;;
37237;SDS011;23129;49.662;8.448;2023-01-24T08:16:12;13.60;;;6.82;;
37237;SDS011;23129;49.662;8.448;2023-01-24T08:18:42;12.55;;;6.85;;
37237;SDS011;23129;49.662;8.448;2023-01-24T08:21:11;16.60;;;8.00;;
37237;SDS011;23129;49.662;8.448;2023-01-24T08:23:40;11.38;;;6.72;;
37237;SDS011;23129;49.662;8.448;2023-01-24T08:26:08;13.50;;;7.30;;
37237;SDS011;23129;49.662;8.448;2023-01-24T08:28:37;11.98;;;6.90;;
37237;SDS011;23129;49.662;8.448;2023-01-24T08:31:07;16.92;;;7.55;;
37237;SDS011;23129;49.662;8.448;2023-01-24T08:33:35;12.20;;;6.85;;
37237;SDS011;23129;49.662;8.448;2023-01-24T08:36:04;14.68;;;8.35;;
37237;SDS011;23129;49.662;8.448;2023-01-24T08:38:33;11.05;;;7.05;;
37237;SDS011;23129;49.662;8.448;2023-01-24T08:41:02;12.73;;;6.82;;
37237;SDS011;23129;49.662;8.448;2023-01-24T08:43:34;12.23;;;7.07;;
37237;SDS011;23129;49.662;8.448;2023-01-24T08:46:03;12.27;;;6.60;;
37237;SDS011;23129;49.662;8.448;2023-01-24T08:48:33;12.55;;;6.70;;
37237;SDS011;23129;49.662;8.448;2023-01-24T08:51:02;18.60;;;6.60;;
37237;SDS011;23129;49.662;8.448;2023-01-24T08:53:33;13.27;;;7.68;;
37237;SDS011;23129;49.662;8.448;2023-01-24T08:56:01;11.70;;;6.30;;
37237;SDS011;23129;49.662;8.448;2023-01-24T08:58:30;12.95;;;7.75;;
37237;SDS011;23129;49.662;8.448;2023-01-24T09:00:59;11.32;;;6.75;;
37237;SDS011;23129;49.662;8.448;2023-01-24T09:03:34;14.02;;;7.38;;
37237;SDS011;23129;49.662;8.448;2023-01-24T09:06:03;11.00;;;6.35;;
37237;SDS011;23129;49.662;8.448;2023-01-24T09:08:32;11.43;;;6.15;;
37237;SDS011;23129;49.662;8.448;2023-01-24T09:11:02;11.13;;;6.25;;
37237;SDS011;23129;49.662;8.448;2023-01-24T09:13:31;10.57;;;6.30;;
37237;SDS011;23129;49.662;8.448;2023-01-24T09:15:59;14.25;;;7.00;;
37237;SDS011;23129;49.662;8.448;2023-01-24T09:18:29;11.57;;;6.25;;
37237;SDS011;23129;49.662;8.448;2023-01-24T09:21:02;10.20;;;5.93;;
37237;SDS011;23129;49.662;8.448;2023-01-24T09:23:31;14.80;;;7.00;;
37237;SDS011;23129;49.662;8.448;2023-01-24T09:25:59;12.65;;;6.78;;
37237;SDS011;23129;49.662;8.448;2023-01-24T09:28:28;10.68;;;6.00;;
37237;SDS011;23129;49.662;8.448;2023-01-24T09:30:56;9.43;;;5.57;;
37237;SDS011;23129;49.662;8.448;2023-01-24T09:33:25;9.30;;;6.00;;
37237;SDS011;23129;49.662;8.448;2023-01-24T09:35:54;13.10;;;7.35;;
37237;SDS011;23129;49.662;8.448;2023-01-24T09:38:26;16.73;;;6.80;;
37237;SDS011;23129;49.662;8.448;2023-01-24T09:41:00;13.10;;;5.57;;
37237;SDS011;23129;49.662;8.448;2023-01-24T09:43:46;12.75;;;5.80;;
37237;SDS011;23129;49.662;8.448;2023-01-24T09:46:21;9.35;;;5.75;;
37237;SDS011;23129;49.662;8.448;2023-01-24T09:49:03;14.43;;;6.82;;
37237;SDS011;23129;49.662;8.448;2023-01-24T09:51:42;9.85;;;5.75;;
37237;SDS011;23129;49.662;8.448;2023-01-24T09:54:21;12.70;;;6.20;;
37237;SDS011;23129;49.662;8.448;2023-01-24T09:56:58;9.38;;;6.10;;
37237;SDS011;23129;49.662;8.448;2023-01-24T09:59:30;11.57;;;6.97;;
37237;SDS011;23129;49.662;8.448;2023-01-24T10:02:12;13.57;;;6.72;;
37237;SDS011;23129;49.662;8.448;2023-01-24T10:04:44;17.92;;;7.35;;
37237;SDS011;23129;49.662;8.448;2023-01-24T10:07:25;18.23;;;7.35;;
37237;SDS011;23129;49.662;8.448;2023-01-24T10:10:20;12.68;;;6.25;;
37237;SDS011;23129;49.662;8.448;2023-01-24T10:13:08;13.75;;;6.68;;
37237;SDS011;23129;49.662;8.448;2023-01-24T10:15:59;13.98;;;6.85;;
37237;SDS011;23129;49.662;8.448;2023-01-24T10:18:44;10.38;;;5.82;;
37237;SDS011;23129;49.662;8.448;2023-01-24T10:21:40;9.93;;;5.25;;
37237;SDS011;23129;49.662;8.448;2023-01-24T10:24:24;15.35;;;6.20;;
37237;SDS011;23129;49.662;8.448;2023-01-24T10:29:29;7.32;;;5.22;;
37237;SDS011;23129;49.662;8.448;2023-01-24T10:32:03;15.43;;;6.53;;
37237;SDS011;23129;49.662;8.448;2023-01-24T10:34:34;13.52;;;6.22;;
37237;SDS011;23129;49.662;8.448;2023-01-24T10:37:11;9.45;;;5.20;;
37237;SDS011;23129;49.662;8.448;2023-01-24T10:39:47;9.63;;;5.32;;
37237;SDS011;23129;49.662;8.448;2023-01-24T10:42:20;7.68;;;5.00;;
37237;SDS011;23129;49.662;8.448;2023-01-24T10:44:51;10.40;;;5.75;;
37237;SDS011;23129;49.662;8.448;2023-01-24T10:47:35;14.18;;;6.25;;
37237;SDS011;23129;49.662;8.448;2023-01-24T10:50:13;11.05;;;5.97;;
37237;SDS011;23129;49.662;8.448;2023-01-24T10:52:44;8.32;;;4.78;;
37237;SDS011;23129;49.662;8.448;2023-01-24T10:55:25;9.15;;;5.50;;
37237;SDS011;23129;49.662;8.448;2023-01-24T10:58:02;13.02;;;6.35;;
37237;SDS011;23129;49.662;8.448;2023-01-24T11:00:46;9.50;;;5.78;;
37237;SDS011;23129;49.662;8.448;2023-01-24T11:03:25;8.18;;;5.43;;
37237;SDS011;23129;49.662;8.448;2023-01-24T11:05:56;12.00;;;5.63;;
37237;SDS011;23129;49.662;8.448;2023-01-24T11:08:26;8.27;;;4.03;;
37237;SDS011;23129;49.662;8.448;2023-01-24T11:11:00;10.25;;;5.85;;
37237;SDS011;23129;49.662;8.448;2023-01-24T11:13:32;8.35;;;5.10;;
37237;SDS011;23129;49.662;8.448;2023-01-24T11:16:04;8.85;;;5.63;;
37237;SDS011;23129;49.662;8.448;2023-01-24T11:18:47;8.02;;;4.93;;
37237;SDS011;23129;49.662;8.448;2023-01-24T11:21:19;9.02;;;5.07;;
37237;SDS011;23129;49.662;8.448;2023-01-24T11:23:58;8.30;;;5.05;;
37237;SDS011;23129;49.662;8.448;2023-01-24T11:26:29;16.88;;;6.43;;
37237;SDS011;23129;49.662;8.448;2023-01-24T11:29:02;8.20;;;4.90;;
37237;SDS011;23129;49.662;8.448;2023-01-24T11:31:33;6.93;;;3.85;;
37237;SDS011;23129;49.662;8.448;2023-01-24T11:37:15;8.55;;;4.88;;
37237;SDS011;23129;49.662;8.448;2023-01-24T11:40:15;10.05;;;4.97;;
37237;SDS011;23129;49.662;8.448;2023-01-24T11:42:59;8.52;;;5.53;;
37237;SDS011;23129;49.662;8.448;2023-01-24T11:45:52;8.93;;;4.65;;
37237;SDS011;23129;49.662;8.448;2023-01-24T11:48:34;6.28;;;4.10;;
37237;SDS011;23129;49.662;8.448;2023-01-24T11:51:15;6.50;;;4.43;;
37237;SDS011;23129;49.662;8.448;2023-01-24T11:53:57;8.40;;;4.70;;
37237;SDS011;23129;49.662;8.448;2023-01-24T11:56:43;10.77;;;5.53;;
37237;SDS011;23129;49.662;8.448;2023-01-24T11:59:22;8.60;;;5.00;;
37237;SDS011;23129;49.662;8.448;2023-01-24T12:02:18;7.32;;;4.43;;
37237;SDS011;23129;49.662;8.448;2023-01-24T12:08:09;9.93;;;5.00;;
37237;SDS011;23129;49.662;8.448;2023-01-24T12:10:57;11.43;;;5.50;;
37237;SDS011;23129;49.662;8.448;2023-01-24T12:13:54;7.88;;;4.95;;
37237;SDS011;23129;49.662;8.448;2023-01-24T12:19:23;7.95;;;4.80;;
37237;SDS011;23129;49.662;8.448;2023-01-24T12:22:14;9.38;;;5.38;;
37237;SDS011;23129;49.662;8.448;2023-01-24T12:24:48;8.35;;;5.28;;
37237;SDS011;23129;49.662;8.448;2023-01-24T12:27:22;10.52;;;5.10;;
37237;SDS011;23129;49.662;8.448;2023-01-24T12:29:55;8.75;;;5.47;;
37237;SDS011;23129;49.662;8.448;2023-01-24T12:32:31;10.80;;;5.50;;
37237;SDS011;23129;49.662;8.448;2023-01-24T12:35:13;9.77;;;5.57;;
37237;SDS011;23129;49.662;8.448;2023-01-24T12:37:52;9.00;;;5.20;;
37237;SDS011;23129;49.662;8.448;2023-01-24T12:40:39;8.40;;;4.90;;
37237;SDS011;23129;49.662;8.448;2023-01-24T12:43:19;6.05;;;4.35;;
37237;SDS011;23129;49.662;8.448;2023-01-24T12:45:56;10.48;;;5.78;;
37237;SDS011;23129;49.662;8.448;2023-01-24T12:48:44;11.93;;;4.82;;
37237;SDS011;23129;49.662;8.448;2023-01-24T12:51:20;7.32;;;4.65;;
37237;SDS011;23129;49.662;8.448;2023-01-24T12:53:59;9.07;;;4.78;;
37237;SDS011;23129;49.662;8.448;2023-01-24T12:56:33;10.48;;;5.05;;
37237;SDS011;23129;49.662;8.448;2023-01-24T12:59:12;6.70;;;4.47;;
37237;SDS011;23129;49.662;8.448;2023-01-24T13:02:01;7.53;;;4.82;;
37237;SDS011;23129;49.662;8.448;2023-01-24T13:04:57;8.38;;;4.97;;
37237;SDS011;23129;49.662;8.448;2023-01-24T13:07:40;8.73;;;5.18;;
37237;SDS011;23129;49.662;8.448;2023-01-24T13:10:21;9.73;;;5.40;;
37237;SDS011;23129;49.662;8.448;2023-01-24T13:13:04;5.93;;;3.53;;
37237;SDS011;23129;49.662;8.448;2023-01-24T13:15:45;8.20;;;4.72;;
37237;SDS011;23129;49.662;8.448;2023-01-24T13:18:46;9.55;;;5.05;;
37237;SDS011;23129;49.662;8.448;2023-01-24T13:21:24;7.95;;;5.32;;
37237;SDS011;23129;49.662;8.448;2023-01-24T13:24:12;11.68;;;6.38;;
37237;SDS011;23129;49.662;8.448;2023-01-24T13:26:58;13.10;;;6.60;;
37237;SDS011;23129;49.662;8.448;2023-01-24T13:29:58;10.35;;;6.85;;
37237;SDS011;23129;49.662;8.448;2023-01-24T13:32:54;8.73;;;5.25;;
37237;SDS011;23129;49.662;8.448;2023-01-24T13:35:29;14.10;;;5.45;;
37237;SDS011;23129;49.662;8.448;2023-01-24T13:38:01;13.13;;;5.70;;
37237;SDS011;23129;49.662;8.448;2023-01-24T13:40:34;10.48;;;5.15;;
37237;SDS011;23129;49.662;8.448;2023-01-24T13:43:02;10.55;;;5.75;;
37237;SDS011;23129;49.662;8.448;2023-01-24T13:45:51;11.38;;;6.00;;
37237;SDS011;23129;49.662;8.448;2023-01-24T13:51:31;7.88;;;5.82;;
37237;SDS011;23129;49.662;8.448;2023-01-24T13:54:02;9.38;;;5.47;;
37237;SDS011;23129;49.662;8.448;2023-01-24T13:56:34;10.48;;;5.93;;
37237;SDS011;23129;49.662;8.448;2023-01-24T14:00:02;12.52;;;5.32;;
37237;SDS011;23129;49.662;8.448;2023-01-24T14:03:12;10.90;;;5.70;;
37237;SDS011;23129;49.662;8.448;2023-01-24T14:05:50;12.93;;;5.60;;
37237;SDS011;23129;49.662;8.448;2023-01-24T14:11:15;9.32;;;4.97;;
37237;SDS011;23129;49.662;8.448;2023-01-24T14:13:59;11.55;;;6.00;;
37237;SDS011;23129;49.662;8.448;2023-01-24T14:16:54;9.32;;;6.38;;
37237;SDS011;23129;49.662;8.448;2023-01-24T14:19:52;13.77;;;6.78;;
37237;SDS011;23129;49.662;8.448;2023-01-24T14:22:31;12.68;;;6.03;;
37237;SDS011;23129;49.662;8.448;2023-01-24T14:25:24;9.07;;;5.28;;
37237;SDS011;23129;49.662;8.448;2023-01-24T14:28:02;7.22;;;5.78;;
37237;SDS011;23129;49.662;8.448;2023-01-24T14:30:56;8.93;;;5.70;;
37237;SDS011;23129;49.662;8.448;2023-01-24T14:33:32;9.05;;;5.10;;
37237;SDS011;23129;49.662;8.448;2023-01-24T14:36:13;10.57;;;6.07;;
37237;SDS011;23129;49.662;8.448;2023-01-24T14:41:39;8.75;;;5.03;;
37237;SDS011;23129;49.662;8.448;2023-01-24T14:44:15;10.05;;;5.55;;
37237;SDS011;23129;49.662;8.448;2023-01-24T14:46:57;10.88;;;6.75;;
37237;SDS011;23129;49.662;8.448;2023-01-24T14:49:31;9.25;;;5.60;;
37237;SDS011;23129;49.662;8.448;2023-01-24T14:52:02;13.48;;;6.50;;
37237;SDS011;23129;49.662;8.448;2023-01-24T14:54:48;13.48;;;5.88;;
37237;SDS011;23129;49.662;8.448;2023-01-24T14:57:19;10.40;;;5.97;;
37237;SDS011;23129;49.662;8.448;2023-01-24T14:59:59;11.73;;;6.85;;
37237;SDS011;23129;49.662;8.448;2023-01-24T15:02:35;11.95;;;5.80;;
37237;SDS011;23129;49.662;8.448;2023-01-24T15:05:14;12.32;;;6.85;;
37237;SDS011;23129;49.662;8.448;2023-01-24T15:07:51;11.18;;;5.93;;
37237;SDS011;23129;49.662;8.448;2023-01-24T15:10:21;13.18;;;7.00;;
37237;SDS011;23129;49.662;8.448;2023-01-24T15:12:51;14.10;;;6.78;;
37237;SDS011;23129;49.662;8.448;2023-01-24T15:15:21;8.55;;;5.38;;
37237;SDS011;23129;49.662;8.448;2023-01-24T15:17:53;14.10;;;5.85;;
37237;SDS011;23129;49.662;8.448;2023-01-24T15:20:28;8.57;;;5.35;;
37237;SDS011;23129;49.662;8.448;2023-01-24T15:22:57;9.38;;;6.25;;
37237;SDS011;23129;49.662;8.448;2023-01-24T15:25:29;9.30;;;4.93;;
37237;SDS011;23129;49.662;8.448;2023-01-24T15:28:08;10.73;;;5.97;;
37237;SDS011;23129;49.662;8.448;2023-01-24T15:30:37;8.32;;;5.30;;
37237;SDS011;23129;49.662;8.448;2023-01-24T15:33:20;9.10;;;6.13;;
37237;SDS011;23129;49.662;8.448;2023-01-24T15:35:49;9.07;;;5.40;;
37237;SDS011;23129;49.662;8.448;2023-01-24T15:38:25;10.60;;;6.57;;
37237;SDS011;23129;49.662;8.448;2023-01-24T15:41:00;7.63;;;5.45;;
37237;SDS011;23129;49.662;8.448;2023-01-24T15:43:41;7.00;;;5.07;;
37237;SDS011;23129;49.662;8.448;2023-01-24T15:46:27;10.48;;;5.40;;
37237;SDS011;23129;49.662;8.448;2023-01-24T15:49:22;12.93;;;5.95;;
37237;SDS011;23129;49.662;8.448;2023-01-24T15:52:11;13.25;;;8.30;;